sensor_id;sensor_type;location;lat;lon;timestamp;temperature;humidity
17994;DHT22;9122;48.406;9.984;2023-04-07T00:01:35;10.30;72.60
17994;DHT22;9122;48.406;9.984;2023-04-07T00:04:20;10.10;73.60
17994;DHT22;9122;48.406;9.984;2023-04-07T00:07:04;10.20;74.80
17994;DHT22;9122;48.406;9.984;2023-04-07T00:09:49;10.10;76.10
17994;DHT22;9122;48.406;9.984;2023-04-07T00:12:33;10.10;77.20
17994;DHT22;9122;48.406;9.984;2023-04-07T00:15:19;10.10;77.80
17994;DHT22;9122;48.406;9.984;2023-04-07T00:18:03;10.00;78.30
17994;DHT22;9122;48.406;9.984;2023-04-07T00:20:48;10.00;79.30
17994;DHT22;9122;48.406;9.984;2023-04-07T00:23:32;9.90;79.80
17994;DHT22;9122;48.406;9.984;2023-04-07T00:26:16;9.90;80.50
17994;DHT22;9122;48.406;9.984;2023-04-07T00:29:01;9.90;81.80
17994;DHT22;9122;48.406;9.984;2023-04-07T00:31:45;9.90;82.60
17994;DHT22;9122;48.406;9.984;2023-04-07T00:34:29;9.80;83.20
17994;DHT22;9122;48.406;9.984;2023-04-07T00:37:13;9.70;84.20
17994;DHT22;9122;48.406;9.984;2023-04-07T00:39:58;9.70;85.50
17994;DHT22;9122;48.406;9.984;2023-04-07T00:42:42;9.70;86.00
17994;DHT22;9122;48.406;9.984;2023-04-07T00:45:28;9.70;86.40
17994;DHT22;9122;48.406;9.984;2023-04-07T00:48:12;9.60;87.10
17994;DHT22;9122;48.406;9.984;2023-04-07T00:50:57;9.60;87.70
17994;DHT22;9122;48.406;9.984;2023-04-07T00:53:41;9.60;88.30
17994;DHT22;9122;48.406;9.984;2023-04-07T00:56:26;9.50;88.60
17994;DHT22;9122;48.406;9.984;2023-04-07T00:59:11;9.60;89.00
17994;DHT22;9122;48.406;9.984;2023-04-07T01:02:07;9.50;89.50
17994;DHT22;9122;48.406;9.984;2023-04-07T01:05:03;9.50;90.00
17994;DHT22;9122;48.406;9.984;2023-04-07T01:11:02;9.40;90.30
17994;DHT22;9122;48.406;9.984;2023-04-07T01:13:52;9.40;90.30
17994;DHT22;9122;48.406;9.984;2023-04-07T01:16:57;9.30;90.40
17994;DHT22;9122;48.406;9.984;2023-04-07T01:19:57;9.30;90.40
17994;DHT22;9122;48.406;9.984;2023-04-07T01:22:46;9.30;90.60
17994;DHT22;9122;48.406;9.984;2023-04-07T01:29:23;9.20;90.80
17994;DHT22;9122;48.406;9.984;2023-04-07T01:32:10;9.20;90.90
17994;DHT22;9122;48.406;9.984;2023-04-07T01:34:56;9.20;91.00
17994;DHT22;9122;48.406;9.984;2023-04-07T01:37:42;9.10;91.00
17994;DHT22;9122;48.406;9.984;2023-04-07T01:40:28;9.10;90.90
17994;DHT22;9122;48.406;9.984;2023-04-07T01:43:14;9.10;90.90
17994;DHT22;9122;48.406;9.984;2023-04-07T01:46:00;9.10;91.00
17994;DHT22;9122;48.406;9.984;2023-04-07T01:48:46;9.00;90.90
17994;DHT22;9122;48.406;9.984;2023-04-07T01:51:32;9.10;91.00
17994;DHT22;9122;48.406;9.984;2023-04-07T01:54:17;9.10;91.10
17994;DHT22;9122;48.406;9.984;2023-04-07T01:57:02;9.20;91.20
17994;DHT22;9122;48.406;9.984;2023-04-07T01:59:47;9.00;91.10
17994;DHT22;9122;48.406;9.984;2023-04-07T02:02:35;9.00;91.30
17994;DHT22;9122;48.406;9.984;2023-04-07T02:05:27;8.90;91.30
17994;DHT22;9122;48.406;9.984;2023-04-07T02:08:15;8.90;91.50
17994;DHT22;9122;48.406;9.984;2023-04-07T02:11:01;8.90;91.60
17994;DHT22;9122;48.406;9.984;2023-04-07T02:13:51;8.90;91.70
17994;DHT22;9122;48.406;9.984;2023-04-07T02:16:36;8.80;91.90
17994;DHT22;9122;48.406;9.984;2023-04-07T02:19:22;8.80;92.00
17994;DHT22;9122;48.406;9.984;2023-04-07T02:22:08;8.80;91.90
17994;DHT22;9122;48.406;9.984;2023-04-07T02:24:52;8.80;91.80
17994;DHT22;9122;48.406;9.984;2023-04-07T02:27:37;8.80;91.90
17994;DHT22;9122;48.406;9.984;2023-04-07T02:30:22;8.80;92.00
17994;DHT22;9122;48.406;9.984;2023-04-07T02:33:07;8.80;92.10
17994;DHT22;9122;48.406;9.984;2023-04-07T02:35:51;8.70;92.10
17994;DHT22;9122;48.406;9.984;2023-04-07T02:38:35;8.70;92.10
17994;DHT22;9122;48.406;9.984;2023-04-07T02:41:20;8.70;92.30
17994;DHT22;9122;48.406;9.984;2023-04-07T02:44:05;8.70;92.40
17994;DHT22;9122;48.406;9.984;2023-04-07T02:46:50;8.70;92.40
17994;DHT22;9122;48.406;9.984;2023-04-07T02:49:34;8.70;92.50
17994;DHT22;9122;48.406;9.984;2023-04-07T02:52:19;8.70;92.50
17994;DHT22;9122;48.406;9.984;2023-04-07T02:55:04;8.70;92.60
17994;DHT22;9122;48.406;9.984;2023-04-07T02:57:48;8.70;92.60
17994;DHT22;9122;48.406;9.984;2023-04-07T03:00:33;8.60;92.60
17994;DHT22;9122;48.406;9.984;2023-04-07T03:03:18;8.70;92.60
17994;DHT22;9122;48.406;9.984;2023-04-07T03:08:46;8.60;92.40
17994;DHT22;9122;48.406;9.984;2023-04-07T03:11:31;8.60;92.80
17994;DHT22;9122;48.406;9.984;2023-04-07T03:14:15;8.60;92.80
17994;DHT22;9122;48.406;9.984;2023-04-07T03:17:00;8.60;92.70
17994;DHT22;9122;48.406;9.984;2023-04-07T03:19:44;8.60;92.70
17994;DHT22;9122;48.406;9.984;2023-04-07T03:22:29;8.60;92.70
17994;DHT22;9122;48.406;9.984;2023-04-07T03:25:14;9.00;92.70
17994;DHT22;9122;48.406;9.984;2023-04-07T03:27:59;8.50;92.60
17994;DHT22;9122;48.406;9.984;2023-04-07T03:30:43;7.90;92.50
17994;DHT22;9122;48.406;9.984;2023-04-07T03:33:27;8.50;92.50
17994;DHT22;9122;48.406;9.984;2023-04-07T03:36:12;8.50;92.40
17994;DHT22;9122;48.406;9.984;2023-04-07T03:38:56;8.50;92.50
17994;DHT22;9122;48.406;9.984;2023-04-07T03:41:41;8.50;92.60
17994;DHT22;9122;48.406;9.984;2023-04-07T03:44:26;8.50;92.60
17994;DHT22;9122;48.406;9.984;2023-04-07T03:47:10;8.40;92.60
17994;DHT22;9122;48.406;9.984;2023-04-07T03:49:54;8.40;92.60
17994;DHT22;9122;48.406;9.984;2023-04-07T03:52:39;8.40;92.70
17994;DHT22;9122;48.406;9.984;2023-04-07T03:55:23;8.40;92.70
17994;DHT22;9122;48.406;9.984;2023-04-07T03:58:08;8.40;92.80
17994;DHT22;9122;48.406;9.984;2023-04-07T04:00:53;8.40;92.90
17994;DHT22;9122;48.406;9.984;2023-04-07T04:03:37;8.40;92.90
17994;DHT22;9122;48.406;9.984;2023-04-07T04:06:22;8.40;92.90
17994;DHT22;9122;48.406;9.984;2023-04-07T04:09:07;8.40;93.00
17994;DHT22;9122;48.406;9.984;2023-04-07T04:11:51;8.40;93.00
17994;DHT22;9122;48.406;9.984;2023-04-07T04:14:35;8.30;92.90
17994;DHT22;9122;48.406;9.984;2023-04-07T04:17:20;8.40;93.00
17994;DHT22;9122;48.406;9.984;2023-04-07T04:20:04;8.30;92.90
17994;DHT22;9122;48.406;9.984;2023-04-07T04:22:49;8.30;93.00
17994;DHT22;9122;48.406;9.984;2023-04-07T04:25:33;8.40;93.10
17994;DHT22;9122;48.406;9.984;2023-04-07T04:28:17;8.30;93.00
17994;DHT22;9122;48.406;9.984;2023-04-07T04:31:01;8.30;93.00
17994;DHT22;9122;48.406;9.984;2023-04-07T04:33:46;8.30;93.00
17994;DHT22;9122;48.406;9.984;2023-04-07T04:36:30;8.30;93.00
17994;DHT22;9122;48.406;9.984;2023-04-07T04:39:15;8.30;93.00
17994;DHT22;9122;48.406;9.984;2023-04-07T04:41:59;8.30;93.10
17994;DHT22;9122;48.406;9.984;2023-04-07T04:44:45;8.30;93.10
17994;DHT22;9122;48.406;9.984;2023-04-07T04:47:29;8.30;93.10
17994;DHT22;9122;48.406;9.984;2023-04-07T04:50:14;8.30;93.00
17994;DHT22;9122;48.406;9.984;2023-04-07T04:52:58;8.30;93.00
17994;DHT22;9122;48.406;9.984;2023-04-07T04:55:43;8.30;93.00
17994;DHT22;9122;48.406;9.984;2023-04-07T04:58:30;8.30;93.10
17994;DHT22;9122;48.406;9.984;2023-04-07T05:01:15;8.30;93.10
17994;DHT22;9122;48.406;9.984;2023-04-07T05:04:00;8.30;93.10
17994;DHT22;9122;48.406;9.984;2023-04-07T05:06:44;8.30;93.10
17994;DHT22;9122;48.406;9.984;2023-04-07T05:09:29;8.30;93.50
17994;DHT22;9122;48.406;9.984;2023-04-07T05:12:14;8.30;93.80
17994;DHT22;9122;48.406;9.984;2023-04-07T05:14:59;8.30;94.00
17994;DHT22;9122;48.406;9.984;2023-04-07T05:17:43;8.30;94.20
17994;DHT22;9122;48.406;9.984;2023-04-07T05:20:33;8.30;94.30
17994;DHT22;9122;48.406;9.984;2023-04-07T05:23:17;8.30;94.40
17994;DHT22;9122;48.406;9.984;2023-04-07T05:26:02;8.30;94.50
17994;DHT22;9122;48.406;9.984;2023-04-07T05:28:46;8.30;94.50
17994;DHT22;9122;48.406;9.984;2023-04-07T05:31:31;8.30;94.60
17994;DHT22;9122;48.406;9.984;2023-04-07T05:34:16;8.30;94.50
17994;DHT22;9122;48.406;9.984;2023-04-07T05:37:00;8.30;94.50
17994;DHT22;9122;48.406;9.984;2023-04-07T05:39:44;8.30;94.60
17994;DHT22;9122;48.406;9.984;2023-04-07T05:42:29;8.20;94.60
17994;DHT22;9122;48.406;9.984;2023-04-07T05:45:15;8.20;94.80
17994;DHT22;9122;48.406;9.984;2023-04-07T05:47:59;8.20;94.90
17994;DHT22;9122;48.406;9.984;2023-04-07T05:50:44;8.20;94.90
17994;DHT22;9122;48.406;9.984;2023-04-07T05:53:29;8.40;95.00
17994;DHT22;9122;48.406;9.984;2023-04-07T05:56:13;8.20;95.00
17994;DHT22;9122;48.406;9.984;2023-04-07T05:58:57;8.20;95.00
17994;DHT22;9122;48.406;9.984;2023-04-07T06:01:43;8.20;95.00
17994;DHT22;9122;48.406;9.984;2023-04-07T06:04:27;8.20;95.10
17994;DHT22;9122;48.406;9.984;2023-04-07T06:07:12;8.10;95.10
17994;DHT22;9122;48.406;9.984;2023-04-07T06:09:56;8.20;95.20
17994;DHT22;9122;48.406;9.984;2023-04-07T06:12:41;8.10;95.20
17994;DHT22;9122;48.406;9.984;2023-04-07T06:15:25;8.10;95.20
17994;DHT22;9122;48.406;9.984;2023-04-07T06:18:10;8.20;95.30
17994;DHT22;9122;48.406;9.984;2023-04-07T06:20:54;8.10;95.30
17994;DHT22;9122;48.406;9.984;2023-04-07T06:23:39;8.10;95.30
17994;DHT22;9122;48.406;9.984;2023-04-07T06:26:23;8.10;95.30
17994;DHT22;9122;48.406;9.984;2023-04-07T06:29:07;8.10;95.40
17994;DHT22;9122;48.406;9.984;2023-04-07T06:31:52;8.10;95.50
17994;DHT22;9122;48.406;9.984;2023-04-07T06:34:36;8.10;95.40
17994;DHT22;9122;48.406;9.984;2023-04-07T06:37:21;8.10;95.40
17994;DHT22;9122;48.406;9.984;2023-04-07T06:40:08;8.10;95.40
17994;DHT22;9122;48.406;9.984;2023-04-07T06:42:52;8.10;95.50
17994;DHT22;9122;48.406;9.984;2023-04-07T06:45:37;8.10;95.50
17994;DHT22;9122;48.406;9.984;2023-04-07T06:48:21;8.10;95.50
17994;DHT22;9122;48.406;9.984;2023-04-07T06:51:06;8.10;95.50
17994;DHT22;9122;48.406;9.984;2023-04-07T06:53:50;8.10;95.50
17994;DHT22;9122;48.406;9.984;2023-04-07T06:56:35;8.20;95.50
17994;DHT22;9122;48.406;9.984;2023-04-07T06:59:20;8.20;95.40
17994;DHT22;9122;48.406;9.984;2023-04-07T07:02:04;8.20;95.40
17994;DHT22;9122;48.406;9.984;2023-04-07T07:04:50;8.20;95.30
17994;DHT22;9122;48.406;9.984;2023-04-07T07:07:35;8.20;95.30
17994;DHT22;9122;48.406;9.984;2023-04-07T07:10:19;8.30;95.40
17994;DHT22;9122;48.406;9.984;2023-04-07T07:13:05;8.30;95.30
17994;DHT22;9122;48.406;9.984;2023-04-07T07:15:50;8.40;95.30
17994;DHT22;9122;48.406;9.984;2023-04-07T07:18:35;8.40;95.10
17994;DHT22;9122;48.406;9.984;2023-04-07T07:21:19;8.60;95.20
17994;DHT22;9122;48.406;9.984;2023-04-07T07:24:04;8.50;95.20
17994;DHT22;9122;48.406;9.984;2023-04-07T07:26:49;8.60;95.30
17994;DHT22;9122;48.406;9.984;2023-04-07T07:29:33;8.60;95.10
17994;DHT22;9122;48.406;9.984;2023-04-07T07:32:18;8.80;94.90
17994;DHT22;9122;48.406;9.984;2023-04-07T07:35:02;8.90;94.70
17994;DHT22;9122;48.406;9.984;2023-04-07T07:37:48;9.10;94.50
17994;DHT22;9122;48.406;9.984;2023-04-07T07:40:33;9.10;94.30
17994;DHT22;9122;48.406;9.984;2023-04-07T07:43:18;9.20;93.80
17994;DHT22;9122;48.406;9.984;2023-04-07T07:46:03;9.30;93.70
17994;DHT22;9122;48.406;9.984;2023-04-07T07:48:47;9.40;93.60
17994;DHT22;9122;48.406;9.984;2023-04-07T07:51:31;9.40;93.30
17994;DHT22;9122;48.406;9.984;2023-04-07T07:54:16;9.50;93.00
17994;DHT22;9122;48.406;9.984;2023-04-07T07:57:00;9.50;92.80
17994;DHT22;9122;48.406;9.984;2023-04-07T07:59:46;9.80;92.70
17994;DHT22;9122;48.406;9.984;2023-04-07T08:02:30;9.60;92.30
17994;DHT22;9122;48.406;9.984;2023-04-07T08:05:16;9.70;92.20
17994;DHT22;9122;48.406;9.984;2023-04-07T08:08:07;9.80;92.20
17994;DHT22;9122;48.406;9.984;2023-04-07T08:10:54;10.00;91.90
17994;DHT22;9122;48.406;9.984;2023-04-07T08:13:38;10.10;91.60
17994;DHT22;9122;48.406;9.984;2023-04-07T08:16:22;10.20;91.60
17994;DHT22;9122;48.406;9.984;2023-04-07T08:19:10;10.20;91.50
17994;DHT22;9122;48.406;9.984;2023-04-07T08:21:55;11.40;91.60
17994;DHT22;9122;48.406;9.984;2023-04-07T08:24:40;10.20;91.00
17994;DHT22;9122;48.406;9.984;2023-04-07T08:27:25;10.90;91.10
17994;DHT22;9122;48.406;9.984;2023-04-07T08:30:10;10.20;90.90
17994;DHT22;9122;48.406;9.984;2023-04-07T08:32:55;10.20;90.90
17994;DHT22;9122;48.406;9.984;2023-04-07T08:35:40;10.20;90.90
17994;DHT22;9122;48.406;9.984;2023-04-07T08:38:24;10.20;90.80
17994;DHT22;9122;48.406;9.984;2023-04-07T08:41:19;10.20;90.90
17994;DHT22;9122;48.406;9.984;2023-04-07T08:44:12;10.30;90.90
17994;DHT22;9122;48.406;9.984;2023-04-07T08:46:58;10.00;90.80
17994;DHT22;9122;48.406;9.984;2023-04-07T08:49:46;10.30;90.70
17994;DHT22;9122;48.406;9.984;2023-04-07T08:52:54;10.30;90.80
17994;DHT22;9122;48.406;9.984;2023-04-07T08:55:39;10.40;90.70
17994;DHT22;9122;48.406;9.984;2023-04-07T08:58:24;10.40;90.50
17994;DHT22;9122;48.406;9.984;2023-04-07T09:01:09;10.40;90.30
17994;DHT22;9122;48.406;9.984;2023-04-07T09:03:55;10.40;90.20
17994;DHT22;9122;48.406;9.984;2023-04-07T09:06:42;10.40;90.10
17994;DHT22;9122;48.406;9.984;2023-04-07T09:09:28;10.50;90.10
17994;DHT22;9122;48.406;9.984;2023-04-07T09:12:12;10.50;90.00
17994;DHT22;9122;48.406;9.984;2023-04-07T09:14:57;10.50;90.10
17994;DHT22;9122;48.406;9.984;2023-04-07T09:17:42;10.60;90.20
17994;DHT22;9122;48.406;9.984;2023-04-07T09:20:26;10.60;90.20
17994;DHT22;9122;48.406;9.984;2023-04-07T09:23:33;10.60;90.00
17994;DHT22;9122;48.406;9.984;2023-04-07T09:29:07;10.70;89.80
17994;DHT22;9122;48.406;9.984;2023-04-07T09:31:52;10.70;89.60
17994;DHT22;9122;48.406;9.984;2023-04-07T09:34:39;10.70;89.40
17994;DHT22;9122;48.406;9.984;2023-04-07T09:37:33;10.70;89.40
17994;DHT22;9122;48.406;9.984;2023-04-07T09:40:25;10.80;89.20
17994;DHT22;9122;48.406;9.984;2023-04-07T09:43:19;10.80;89.00
17994;DHT22;9122;48.406;9.984;2023-04-07T09:49:01;10.90;88.70
17994;DHT22;9122;48.406;9.984;2023-04-07T09:51:57;10.90;88.40
17994;DHT22;9122;48.406;9.984;2023-04-07T09:54:42;11.00;88.20
17994;DHT22;9122;48.406;9.984;2023-04-07T09:57:27;11.20;88.10
17994;DHT22;9122;48.406;9.984;2023-04-07T10:00:12;11.30;87.80
17994;DHT22;9122;48.406;9.984;2023-04-07T10:02:56;11.40;87.80
17994;DHT22;9122;48.406;9.984;2023-04-07T10:05:41;11.60;87.60
17994;DHT22;9122;48.406;9.984;2023-04-07T10:08:28;11.70;87.20
17994;DHT22;9122;48.406;9.984;2023-04-07T10:11:14;11.90;86.40
17994;DHT22;9122;48.406;9.984;2023-04-07T10:13:59;11.90;85.90
17994;DHT22;9122;48.406;9.984;2023-04-07T10:16:44;12.00;85.80
17994;DHT22;9122;48.406;9.984;2023-04-07T10:19:33;12.10;85.00
17994;DHT22;9122;48.406;9.984;2023-04-07T10:22:18;12.10;84.20
17994;DHT22;9122;48.406;9.984;2023-04-07T10:25:06;12.10;83.90
17994;DHT22;9122;48.406;9.984;2023-04-07T10:27:58;12.10;84.10
17994;DHT22;9122;48.406;9.984;2023-04-07T10:30:44;12.20;84.30
17994;DHT22;9122;48.406;9.984;2023-04-07T10:33:46;12.20;83.80
17994;DHT22;9122;48.406;9.984;2023-04-07T10:36:31;12.20;83.50
17994;DHT22;9122;48.406;9.984;2023-04-07T10:42:01;12.30;83.50
17994;DHT22;9122;48.406;9.984;2023-04-07T10:44:47;12.40;83.70
17994;DHT22;9122;48.406;9.984;2023-04-07T10:47:33;12.40;83.50
17994;DHT22;9122;48.406;9.984;2023-04-07T10:53:11;12.40;83.00
17994;DHT22;9122;48.406;9.984;2023-04-07T10:55:57;12.40;83.10
17994;DHT22;9122;48.406;9.984;2023-04-07T10:58:42;12.40;82.20
17994;DHT22;9122;48.406;9.984;2023-04-07T11:01:27;12.40;81.90
17994;DHT22;9122;48.406;9.984;2023-04-07T11:04:11;12.40;81.90
17994;DHT22;9122;48.406;9.984;2023-04-07T11:06:56;12.40;83.20
17994;DHT22;9122;48.406;9.984;2023-04-07T11:09:42;12.40;83.50
17994;DHT22;9122;48.406;9.984;2023-04-07T11:12:28;12.50;84.80
17994;DHT22;9122;48.406;9.984;2023-04-07T11:15:19;12.50;85.50
17994;DHT22;9122;48.406;9.984;2023-04-07T11:18:15;12.50;85.90
17994;DHT22;9122;48.406;9.984;2023-04-07T11:21:00;12.50;85.90
17994;DHT22;9122;48.406;9.984;2023-04-07T11:23:46;12.40;85.90
17994;DHT22;9122;48.406;9.984;2023-04-07T11:26:39;12.40;85.80
17994;DHT22;9122;48.406;9.984;2023-04-07T11:29:31;12.40;85.40
17994;DHT22;9122;48.406;9.984;2023-04-07T11:32:22;12.50;85.70
17994;DHT22;9122;48.406;9.984;2023-04-07T11:35:08;12.50;85.40
17994;DHT22;9122;48.406;9.984;2023-04-07T11:37:58;12.50;85.10
17994;DHT22;9122;48.406;9.984;2023-04-07T11:40:42;12.50;85.00
17994;DHT22;9122;48.406;9.984;2023-04-07T11:43:27;12.50;85.10
17994;DHT22;9122;48.406;9.984;2023-04-07T11:46:16;12.60;85.20
17994;DHT22;9122;48.406;9.984;2023-04-07T11:49:09;12.60;85.10
17994;DHT22;9122;48.406;9.984;2023-04-07T11:52:01;12.60;85.30
17994;DHT22;9122;48.406;9.984;2023-04-07T11:54:46;12.50;84.90
17994;DHT22;9122;48.406;9.984;2023-04-07T11:57:31;12.50;84.70
17994;DHT22;9122;48.406;9.984;2023-04-07T12:00:15;12.50;84.50
17994;DHT22;9122;48.406;9.984;2023-04-07T12:03:11;12.60;84.60
17994;DHT22;9122;48.406;9.984;2023-04-07T12:05:57;12.50;84.40
17994;DHT22;9122;48.406;9.984;2023-04-07T12:08:42;12.50;84.10
17994;DHT22;9122;48.406;9.984;2023-04-07T12:11:27;12.50;84.00
17994;DHT22;9122;48.406;9.984;2023-04-07T12:14:12;12.50;84.20
17994;DHT22;9122;48.406;9.984;2023-04-07T12:16:57;12.50;84.30
17994;DHT22;9122;48.406;9.984;2023-04-07T12:19:42;12.50;85.10
17994;DHT22;9122;48.406;9.984;2023-04-07T12:22:26;12.40;85.00
17994;DHT22;9122;48.406;9.984;2023-04-07T12:25:11;12.40;85.70
17994;DHT22;9122;48.406;9.984;2023-04-07T12:27:55;12.40;85.30
17994;DHT22;9122;48.406;9.984;2023-04-07T12:30:40;12.40;85.10
17994;DHT22;9122;48.406;9.984;2023-04-07T12:33:25;12.30;85.10
17994;DHT22;9122;48.406;9.984;2023-04-07T12:36:09;12.20;85.30
17994;DHT22;9122;48.406;9.984;2023-04-07T12:38:55;12.20;85.10
17994;DHT22;9122;48.406;9.984;2023-04-07T12:41:39;12.10;85.10
17994;DHT22;9122;48.406;9.984;2023-04-07T12:44:24;12.10;85.10
17994;DHT22;9122;48.406;9.984;2023-04-07T12:47:08;12.10;84.70
17994;DHT22;9122;48.406;9.984;2023-04-07T12:49:55;12.00;84.40
17994;DHT22;9122;48.406;9.984;2023-04-07T12:52:40;12.00;84.70
17994;DHT22;9122;48.406;9.984;2023-04-07T12:55:25;11.90;84.60
17994;DHT22;9122;48.406;9.984;2023-04-07T12:58:09;11.90;84.90
17994;DHT22;9122;48.406;9.984;2023-04-07T13:00:54;11.90;85.00
17994;DHT22;9122;48.406;9.984;2023-04-07T13:03:39;12.10;85.20
17994;DHT22;9122;48.406;9.984;2023-04-07T13:06:24;11.90;85.60
17994;DHT22;9122;48.406;9.984;2023-04-07T13:09:08;11.80;85.80
17994;DHT22;9122;48.406;9.984;2023-04-07T13:11:53;11.90;85.90
17994;DHT22;9122;48.406;9.984;2023-04-07T13:14:39;11.90;85.80
17994;DHT22;9122;48.406;9.984;2023-04-07T13:17:24;11.80;86.40
17994;DHT22;9122;48.406;9.984;2023-04-07T13:20:09;11.90;87.30
17994;DHT22;9122;48.406;9.984;2023-04-07T13:22:53;11.90;87.60
17994;DHT22;9122;48.406;9.984;2023-04-07T13:25:38;11.80;87.70
17994;DHT22;9122;48.406;9.984;2023-04-07T13:28:22;11.80;88.10
17994;DHT22;9122;48.406;9.984;2023-04-07T13:31:06;11.80;88.60
17994;DHT22;9122;48.406;9.984;2023-04-07T13:33:51;11.80;88.50
17994;DHT22;9122;48.406;9.984;2023-04-07T13:36:36;11.80;88.30
17994;DHT22;9122;48.406;9.984;2023-04-07T13:39:20;11.80;87.90
17994;DHT22;9122;48.406;9.984;2023-04-07T13:42:05;11.80;87.10
17994;DHT22;9122;48.406;9.984;2023-04-07T13:44:50;11.70;87.40
17994;DHT22;9122;48.406;9.984;2023-04-07T13:47:35;11.80;87.50
17994;DHT22;9122;48.406;9.984;2023-04-07T13:50:19;11.70;87.20
17994;DHT22;9122;48.406;9.984;2023-04-07T13:53:04;11.80;87.40
17994;DHT22;9122;48.406;9.984;2023-04-07T13:55:48;11.80;87.70
17994;DHT22;9122;48.406;9.984;2023-04-07T13:58:33;11.70;87.40
17994;DHT22;9122;48.406;9.984;2023-04-07T14:01:18;11.80;86.30
17994;DHT22;9122;48.406;9.984;2023-04-07T14:04:02;11.80;85.40
17994;DHT22;9122;48.406;9.984;2023-04-07T14:06:47;12.30;85.00
17994;DHT22;9122;48.406;9.984;2023-04-07T14:09:31;11.80;84.90
17994;DHT22;9122;48.406;9.984;2023-04-07T14:12:16;11.80;85.20
17994;DHT22;9122;48.406;9.984;2023-04-07T14:15:00;11.80;85.30
17994;DHT22;9122;48.406;9.984;2023-04-07T14:17:45;11.80;85.60
17994;DHT22;9122;48.406;9.984;2023-04-07T14:20:29;11.80;84.90
17994;DHT22;9122;48.406;9.984;2023-04-07T14:23:13;11.70;83.90
17994;DHT22;9122;48.406;9.984;2023-04-07T14:25:58;11.80;84.20
17994;DHT22;9122;48.406;9.984;2023-04-07T14:28:43;11.80;83.60
17994;DHT22;9122;48.406;9.984;2023-04-07T14:31:27;11.80;83.40
17994;DHT22;9122;48.406;9.984;2023-04-07T14:34:11;11.80;83.60
17994;DHT22;9122;48.406;9.984;2023-04-07T14:36:56;11.80;82.90
17994;DHT22;9122;48.406;9.984;2023-04-07T14:39:44;11.80;82.90
17994;DHT22;9122;48.406;9.984;2023-04-07T14:42:29;11.80;82.80
17994;DHT22;9122;48.406;9.984;2023-04-07T14:45:14;11.80;82.90
17994;DHT22;9122;48.406;9.984;2023-04-07T14:47:59;11.80;82.90
17994;DHT22;9122;48.406;9.984;2023-04-07T14:50:43;11.80;82.90
17994;DHT22;9122;48.406;9.984;2023-04-07T14:53:29;11.90;82.20
17994;DHT22;9122;48.406;9.984;2023-04-07T14:56:13;11.90;81.30
17994;DHT22;9122;48.406;9.984;2023-04-07T14:58:58;11.90;81.00
17994;DHT22;9122;48.406;9.984;2023-04-07T15:01:42;11.90;81.20
17994;DHT22;9122;48.406;9.984;2023-04-07T15:04:27;11.90;80.70
17994;DHT22;9122;48.406;9.984;2023-04-07T15:07:11;12.10;80.20
17994;DHT22;9122;48.406;9.984;2023-04-07T15:09:56;12.00;80.30
17994;DHT22;9122;48.406;9.984;2023-04-07T15:12:43;12.10;80.00
17994;DHT22;9122;48.406;9.984;2023-04-07T15:15:29;12.00;79.50
17994;DHT22;9122;48.406;9.984;2023-04-07T15:18:13;12.00;79.10
17994;DHT22;9122;48.406;9.984;2023-04-07T15:20:57;12.00;79.20
17994;DHT22;9122;48.406;9.984;2023-04-07T15:23:42;12.80;80.40
17994;DHT22;9122;48.406;9.984;2023-04-07T15:26:27;12.10;80.60
17994;DHT22;9122;48.406;9.984;2023-04-07T15:29:11;12.10;81.10
17994;DHT22;9122;48.406;9.984;2023-04-07T15:31:56;12.10;81.10
17994;DHT22;9122;48.406;9.984;2023-04-07T15:34:40;12.10;81.40
17994;DHT22;9122;48.406;9.984;2023-04-07T15:37:25;12.10;82.70
17994;DHT22;9122;48.406;9.984;2023-04-07T15:40:09;12.10;82.10
17994;DHT22;9122;48.406;9.984;2023-04-07T15:42:53;12.20;82.00
17994;DHT22;9122;48.406;9.984;2023-04-07T15:45:42;12.20;82.60
17994;DHT22;9122;48.406;9.984;2023-04-07T15:48:27;12.20;82.30
17994;DHT22;9122;48.406;9.984;2023-04-07T15:51:11;12.20;82.40
17994;DHT22;9122;48.406;9.984;2023-04-07T15:53:55;12.20;82.60
17994;DHT22;9122;48.406;9.984;2023-04-07T15:56:39;12.20;82.80
17994;DHT22;9122;48.406;9.984;2023-04-07T15:59:23;12.20;83.00
17994;DHT22;9122;48.406;9.984;2023-04-07T16:02:08;12.20;83.10
17994;DHT22;9122;48.406;9.984;2023-04-07T16:04:52;12.30;83.30
17994;DHT22;9122;48.406;9.984;2023-04-07T16:07:38;12.30;83.30
17994;DHT22;9122;48.406;9.984;2023-04-07T16:13:08;12.30;83.60
17994;DHT22;9122;48.406;9.984;2023-04-07T16:15:56;12.30;84.50
17994;DHT22;9122;48.406;9.984;2023-04-07T16:18:41;12.30;84.80
17994;DHT22;9122;48.406;9.984;2023-04-07T16:21:28;12.20;84.50
17994;DHT22;9122;48.406;9.984;2023-04-07T16:24:13;12.30;85.30
17994;DHT22;9122;48.406;9.984;2023-04-07T16:26:57;12.20;83.90
17994;DHT22;9122;48.406;9.984;2023-04-07T16:29:44;12.30;84.20
17994;DHT22;9122;48.406;9.984;2023-04-07T16:32:28;12.40;83.80
17994;DHT22;9122;48.406;9.984;2023-04-07T16:35:14;12.20;83.40
17994;DHT22;9122;48.406;9.984;2023-04-07T16:37:58;12.20;82.80
17994;DHT22;9122;48.406;9.984;2023-04-07T16:40:47;12.20;82.50
17994;DHT22;9122;48.406;9.984;2023-04-07T16:43:31;12.20;82.30
17994;DHT22;9122;48.406;9.984;2023-04-07T16:46:19;12.10;81.50
17994;DHT22;9122;48.406;9.984;2023-04-07T16:49:03;12.10;80.10
17994;DHT22;9122;48.406;9.984;2023-04-07T16:51:48;12.10;79.30
17994;DHT22;9122;48.406;9.984;2023-04-07T16:54:36;12.10;79.10
17994;DHT22;9122;48.406;9.984;2023-04-07T16:57:20;12.10;79.60
17994;DHT22;9122;48.406;9.984;2023-04-07T17:00:05;12.10;79.30
17994;DHT22;9122;48.406;9.984;2023-04-07T17:02:51;12.10;80.20
17994;DHT22;9122;48.406;9.984;2023-04-07T17:05:36;12.10;82.40
17994;DHT22;9122;48.406;9.984;2023-04-07T17:08:20;12.10;84.40
17994;DHT22;9122;48.406;9.984;2023-04-07T17:11:08;12.00;86.70
17994;DHT22;9122;48.406;9.984;2023-04-07T17:13:53;11.90;87.20
17994;DHT22;9122;48.406;9.984;2023-04-07T17:16:38;11.90;88.30
17994;DHT22;9122;48.406;9.984;2023-04-07T17:19:23;11.80;89.20
17994;DHT22;9122;48.406;9.984;2023-04-07T17:22:07;11.70;90.80
17994;DHT22;9122;48.406;9.984;2023-04-07T17:24:51;11.60;90.50
17994;DHT22;9122;48.406;9.984;2023-04-07T17:27:36;11.50;90.90
17994;DHT22;9122;48.406;9.984;2023-04-07T17:30:21;11.40;91.30
17994;DHT22;9122;48.406;9.984;2023-04-07T17:33:05;11.30;91.90
17994;DHT22;9122;48.406;9.984;2023-04-07T17:35:54;11.30;92.10
17994;DHT22;9122;48.406;9.984;2023-04-07T17:38:39;11.30;92.20
17994;DHT22;9122;48.406;9.984;2023-04-07T17:41:23;11.20;92.30
17994;DHT22;9122;48.406;9.984;2023-04-07T17:44:09;11.20;92.70
17994;DHT22;9122;48.406;9.984;2023-04-07T17:46:54;11.20;92.70
17994;DHT22;9122;48.406;9.984;2023-04-07T17:49:40;11.10;92.70
17994;DHT22;9122;48.406;9.984;2023-04-07T17:52:25;11.10;93.00
17994;DHT22;9122;48.406;9.984;2023-04-07T17:55:11;11.00;93.20
17994;DHT22;9122;48.406;9.984;2023-04-07T17:57:56;11.00;93.30
17994;DHT22;9122;48.406;9.984;2023-04-07T18:00:43;10.90;93.30
17994;DHT22;9122;48.406;9.984;2023-04-07T18:03:28;10.90;93.20
17994;DHT22;9122;48.406;9.984;2023-04-07T18:06:16;10.90;93.10
17994;DHT22;9122;48.406;9.984;2023-04-07T18:09:00;10.80;93.00
17994;DHT22;9122;48.406;9.984;2023-04-07T18:11:47;10.80;92.90
17994;DHT22;9122;48.406;9.984;2023-04-07T18:14:31;10.70;92.80